Estación de Contra Coronel

Ultimos registro cada 15 minutos 79
Estación Fecha / Hora Temperatura Humedad Lluvia Velocidad Dirección Radiación Presion
79 Contra Coronel 06-05-2026 19:30 8,6 87,1 0 0,3 279 0,6 1014,4
78 Contra Coronel 06-05-2026 19:15 9,1 84,1 0 0 278 0,6 1014,1
77 Contra Coronel 06-05-2026 19:00 9,5 82,6 0 0,3 211 0,6 1013,8
76 Contra Coronel 06-05-2026 18:45 10 79,5 0 0,3 240 0,6 1013,6
75 Contra Coronel 06-05-2026 18:30 10,1 78,7 0 0,7 219 0,6 1013,3
74 Contra Coronel 06-05-2026 18:15 10,3 79 0 0,7 240 0,6 1013
73 Contra Coronel 06-05-2026 18:00 10,4 78,4 0 0,7 234 5,6 1012,7
72 Contra Coronel 06-05-2026 17:45 10,5 79,7 0 0,3 226 14,4 1012,3
71 Contra Coronel 06-05-2026 17:30 10,8 79,2 0 0,3 257 36,9 1012
70 Contra Coronel 06-05-2026 17:15 11 77 0 1 268 31,9 1011,8
69 Contra Coronel 06-05-2026 17:00 11,3 75,4 0 1,3 205 68,1 1011,3
68 Contra Coronel 06-05-2026 16:45 11,2 75,4 0 2,3 187 40,6 1010,8
67 Contra Coronel 06-05-2026 16:30 11,5 74,6 0 2,7 184 36,9 1010,5
66 Contra Coronel 06-05-2026 16:15 11,9 79,8 0 1,7 181 115,6 1010,1
65 Contra Coronel 06-05-2026 16:00 12,1 81,1 0 2 181 201,9 1009,7
64 Contra Coronel 06-05-2026 15:45 12 80,8 0 2 187 200,6 1009,4
63 Contra Coronel 06-05-2026 15:30 11,7 82,6 0 1,7 192 155,6 1009,1
62 Contra Coronel 06-05-2026 15:15 11,4 81 0 2,3 185 189,4 1008,7
61 Contra Coronel 06-05-2026 15:00 11,3 81 0 2,3 185 176,9 1008,4
60 Contra Coronel 06-05-2026 14:45 11 80,9 0 3 175 188,1 1008
59 Contra Coronel 06-05-2026 14:30 10,8 81,1 0 2,7 184 143,1 1007,8
58 Contra Coronel 06-05-2026 14:15 10,7 81,4 0 4,3 178 171,9 1007,7
57 Contra Coronel 06-05-2026 14:00 10,8 82,6 0 3,3 183 195,6 1007,6
56 Contra Coronel 06-05-2026 13:45 10,8 82,3 0 3,7 181 276,9 1007,3
55 Contra Coronel 06-05-2026 13:30 10,5 84,1 0 2 190 170,6 1007,1
54 Contra Coronel 06-05-2026 13:15 10,4 85 0 2,7 190 115,6 1007
53 Contra Coronel 06-05-2026 13:00 10,2 87,1 0 1,7 192 74,4 1006,8
52 Contra Coronel 06-05-2026 12:45 10,2 86,6 0 2,3 178 108,1 1006,6
51 Contra Coronel 06-05-2026 12:30 10,1 87,5 0 2,3 192 130,6 1006,6
50 Contra Coronel 06-05-2026 12:15 9,9 88,7 0 2 195 109,4 1006,5
49 Contra Coronel 06-05-2026 12:00 9,6 91,6 0 1,7 213 79,4 1006,4
48 Contra Coronel 06-05-2026 11:45 9,5 93,4 0 1 197 81,9 1006,2
47 Contra Coronel 06-05-2026 11:30 9,2 94 0 1 223 73,1 1005,9
46 Contra Coronel 06-05-2026 11:15 8,9 95,5 0 0,7 226 55,6 1005,6
45 Contra Coronel 06-05-2026 11:00 8,8 95,5 0 1,7 202 28,1 1005,3
44 Contra Coronel 06-05-2026 10:45 8,8 95,2 0 2,7 181 31,9 1005
43 Contra Coronel 06-05-2026 10:30 8,8 95,4 0 3 183 38,1 1004,6
42 Contra Coronel 06-05-2026 10:15 8,7 96,5 0 3 181 53,1 1004,5
41 Contra Coronel 06-05-2026 10:00 8,5 97,2 0 3 188 24,4 1004,2
40 Contra Coronel 06-05-2026 09:45 8,7 97,7 0 2,7 187 38,1 1004,2
39 Contra Coronel 06-05-2026 09:30 8,8 97,9 0 2,3 184 29,4 1004,1
38 Contra Coronel 06-05-2026 09:15 8,7 98,3 0 3 187 13,1 1003,9
37 Contra Coronel 06-05-2026 09:00 8,7 98,7 0,2 1,7 191 6,9 1003,7
36 Contra Coronel 06-05-2026 08:45 8,7 98,7 0 0,7 204 8,1 1003,5
35 Contra Coronel 06-05-2026 08:30 8,8 98,7 0,2 1 187 5,6 1003
34 Contra Coronel 06-05-2026 08:15 8,7 98,8 0,2 2,3 178 5,6 1002,7
33 Contra Coronel 06-05-2026 08:00 8,7 99 0 2,3 180 3,1 1002,6
32 Contra Coronel 06-05-2026 07:45 8,7 99,3 0 1,7 177 0,6 1002,7
31 Contra Coronel 06-05-2026 07:30 8,9 99,4 0 1,3 192 0,6 1002,7
30 Contra Coronel 06-05-2026 07:15 9 99,5 0 1,7 183 0,6 1002,4
29 Contra Coronel 06-05-2026 07:00 9 99,6 0,2 1,7 198 0,6 1002,3
28 Contra Coronel 06-05-2026 06:45 9,1 99,6 0,3 1 192 0,6 1002,3
27 Contra Coronel 06-05-2026 06:30 9,1 99,7 0,4 2 188 0,6 1002
26 Contra Coronel 06-05-2026 06:15 9,2 99,7 0,3 2 187 0,6 1001,9
25 Contra Coronel 06-05-2026 06:00 9,1 99,9 0,3 2,7 187 0,6 1001,8
24 Contra Coronel 06-05-2026 05:45 9,2 99,9 0,2 0,7 213 0,6 1001,9
23 Contra Coronel 06-05-2026 05:30 9,2 99,9 0,3 1,3 199 0,6 1001,7
22 Contra Coronel 06-05-2026 05:15 9,2 99,9 0,7 1,3 198 0,6 1001,5
21 Contra Coronel 06-05-2026 05:00 9,2 99,9 0 1 199 0,6 1001,4
20 Contra Coronel 06-05-2026 04:45 9,2 99,8 1,3 1,7 192 0,6 1001,4
19 Contra Coronel 06-05-2026 04:30 9,3 99,8 1,4 0 244 0,6 1001,6
18 Contra Coronel 06-05-2026 04:15 9,4 99,7 1,4 0,3 225 0,6 1001,7
17 Contra Coronel 06-05-2026 04:00 9,5 99,7 0,8 0,3 225 0,6 1001,8
16 Contra Coronel 06-05-2026 03:45 9,7 99,9 1,5 1,7 296 0,6 1002,2
15 Contra Coronel 06-05-2026 03:30 9,8 99,7 1,1 0 285 0,6 1002
14 Contra Coronel 06-05-2026 03:15 9,8 99,7 1,5 0 197 0,6 1001,8
13 Contra Coronel 06-05-2026 03:00 9,8 99,6 1,7 1 173 0,6 1001,9
12 Contra Coronel 06-05-2026 02:45 9,8 99,7 1,9 1,3 181 0,6 1001,9
11 Contra Coronel 06-05-2026 02:30 9,8 99,6 3,1 1,7 170 0,6 1001,9
10 Contra Coronel 06-05-2026 02:15 9,9 99,5 2,5 1,7 167 0,6 1001,8
9 Contra Coronel 06-05-2026 02:00 10,1 99,3 2,6 2,3 171 0,6 1001,9
8 Contra Coronel 06-05-2026 01:45 10,4 99,2 2 2,3 184 0,6 1001,8
7 Contra Coronel 06-05-2026 01:30 10,8 98,9 1,9 3,3 184 0,6 1001,6
6 Contra Coronel 06-05-2026 01:15 11,8 97,8 1,4 2 199 0,6 1001,7
5 Contra Coronel 06-05-2026 01:00 13,7 97,9 0,1 1 336 0,6 1001,6
4 Contra Coronel 06-05-2026 00:45 13,7 97,7 0,1 1,3 13 0,6 1001,6
3 Contra Coronel 06-05-2026 00:30 13,8 97,3 0 1,3 358 0,6 1001,6
2 Contra Coronel 06-05-2026 00:15 13,9 97,1 0 1,7 358 0,6 1001,6
1 Contra Coronel 06-05-2026 00:00 14 96,5 0 2,3 10 0,6 1001,6